createdAt,value
2018-08-21T13:04:41.425Z,72.8
2018-08-21T13:14:55.966Z,70.1
2018-08-21T13:25:10.710Z,70
2018-08-21T13:35:26.127Z,71.1
2018-08-21T13:45:40.147Z,69.9
2018-08-21T13:55:55.388Z,69.3
2018-08-21T14:06:09.843Z,71.8
2018-08-21T14:16:25.282Z,72.9
2018-08-21T14:26:40.232Z,74.7
2018-08-21T14:36:54.278Z,76.4
2018-08-21T14:47:08.859Z,76.5
2018-08-21T14:57:23.532Z,75.9
2018-08-21T15:07:38.224Z,76.6
2018-08-21T15:17:52.142Z,76.8
2018-08-21T15:28:07.236Z,76.9
2018-08-21T15:38:21.957Z,77.5
2018-08-21T15:48:37.659Z,77.9
2018-08-21T15:58:52.689Z,77.5
2018-08-21T16:09:08.414Z,77
2018-08-21T16:19:22.312Z,76.3
2018-08-21T16:29:36.745Z,75.1
2018-08-21T16:39:50.860Z,75.5
2018-08-21T16:50:05.628Z,75.7
2018-08-21T17:00:21.406Z,78.1
2018-08-21T17:10:35.580Z,80.2
2018-08-21T17:20:51.413Z,82.3
2018-08-21T17:31:05.660Z,82.2
2018-08-21T17:41:20.443Z,83.1
2018-08-21T17:51:35.208Z,83.9
2018-08-21T18:01:49.139Z,84.3
2018-08-21T18:12:04.637Z,84.3
2018-08-21T18:22:19.408Z,85.3
2018-08-21T18:32:33.776Z,85.4
2018-08-21T18:42:48.621Z,84.9
2018-08-21T18:53:02.833Z,84.4
2018-08-21T19:03:17.742Z,81.3
2018-08-21T19:13:33.278Z,82.1
2018-08-21T19:23:48.380Z,78
2018-08-21T19:44:18.632Z,74
2018-08-21T19:54:34.121Z,71.1
2018-08-21T20:04:49.792Z,62.8
2018-08-21T20:15:04.620Z,56.1
2018-08-21T20:25:18.480Z,57.9
2018-08-21T20:35:32.493Z,61.1
2018-08-21T20:45:48.040Z,60.8
2018-08-21T20:56:01.956Z,54.7
2018-08-21T21:06:15.951Z,51
2018-08-21T21:16:30.517Z,40.8
2018-08-21T21:26:45.586Z,43.3
2018-08-21T21:37:00.291Z,45.8
2018-08-21T21:47:15.156Z,45.5
2018-08-21T21:57:29.039Z,41.1
2018-08-21T22:07:43.560Z,45.7
2018-08-21T22:17:57.541Z,47.4
2018-08-21T22:28:11.789Z,44.1
2018-08-21T22:38:26.393Z,41.2
2018-08-21T22:48:40.899Z,34.6
2018-08-21T22:58:54.757Z,37.2
2018-08-21T23:09:10.442Z,33.8
2018-08-21T23:19:25.060Z,31.4
2018-08-21T23:29:39.546Z,29.3
2018-08-21T23:39:54.785Z,31.6
2018-08-21T23:50:08.933Z,29.1
